• Join FlightAware (Why Join?)
  • Login
  • US Flag 
05:54AM EDT


 

Airport Tracker/Info


-or-


 

Live Flight TrackerFlight Track Log ✈ CES220 ✈ 10-Sep-2013 ✈ EDDF / FRA - ZSPD / PVG

Flight Track Log - Related Links

Times and Time Zones

All times are in EDT time to prevent confusion due to time zone crossing. See the CES220 flight status page for this flight to view local times or setup timezone preferences in your user account.

Time Position Orientation Groundspeed Altitude Reporting Facility
EDT Latitude Longitude Course Direction KTS MPH feet Rate Location/Type
09:09AM 50.0420 8.5750 249° West 100 115  Level FlightAware
09:09AM 50.0390 8.5600 253° West 155 178 1,800 Level FlightAware
09:09AM 50.0330 8.5340 250° West 160 184 1,200 2,820 Climbing FlightAware
09:10AM 50.0280 8.5130 250° West 155 178 2,000 2,280 Climbing FlightAware
09:10AM 50.0270 8.5060 257° West 156 180 2,200 1,500 Climbing FlightAware
09:10AM 50.0290 8.4820 277° West 160 184 2,700 1,500 Climbing FlightAware
09:11AM 50.0310 8.4520 276° West 159 183 3,400 1,500 Climbing FlightAware
09:11AM 50.0320 8.4450 283° West 160 184 3,500 960 Climbing FlightAware
09:11AM 50.0380 8.4160 288° West 189 217 3,900 900 Climbing FlightAware
09:11AM 50.0430 8.4090 318° Northwest 197 227 4,000 1,020 Climbing FlightAware
09:11AM 50.0580 8.3920 324° Northwest 217 250 4,400 1,200 Climbing FlightAware
09:12AM 50.0750 8.3720 323° Northwest 240 276 4,800 1,500 Climbing FlightAware
09:12AM 50.0940 8.3500 323° Northwest 254 292 5,400 1,980 Climbing FlightAware
09:12AM 50.1100 8.3340 327° Northwest 265 305 6,000 2,220 Climbing FlightAware
09:13AM 50.1190 8.3300 344° North 268 308 6,300 2,460 Climbing FlightAware
09:13AM 50.1250 8.3290 354° North 270 311 6,500 3,000 Climbing FlightAware
09:13AM 50.1500 8.3380 13° North 269 310 7,500 2,520 Climbing FlightAware
09:13AM 50.1730 8.3490 17° North 273 314 8,200 2,280 Climbing FlightAware
09:14AM 50.2140 8.3680 17° North 289 333 9,500 2,460 Climbing FlightAware
09:14AM 50.2630 8.3760 North 290 334 11,000 2,340 Climbing FlightAware
09:15AM 50.3060 8.3800 North 295 339 12,200 2,280 Climbing FlightAware
09:16AM 50.3560 8.3840 North 299 344 13,600 2,160 Climbing FlightAware
09:16AM 50.4000 8.3870 North 307 353 14,700 2,160 Climbing FlightAware
09:17AM 50.4570 8.3950 North 311 358 16,200 1,800 Climbing FlightAware
09:17AM 50.5060 8.4010 North 331 381 16,900 1,620 Climbing FlightAware
09:18AM 50.5600 8.4090 North 337 388 18,100 1,740 Climbing FlightAware
09:18AM 50.6180 8.4150 North 351 404 19,000 1,560 Climbing FlightAware
09:19AM 50.6700 8.4210 North 357 411 19,900 1,800 Climbing FlightAware
09:20AM 50.7300 8.4280 North 362 417 21,100 2,160 Climbing FlightAware
09:20AM 50.7900 8.4340 North 357 411 22,500 2,220 Climbing FlightAware
09:21AM 50.8470 8.4440 North 351 404 23,800 1,980 Climbing FlightAware
09:21AM 50.8660 8.4590 26° Northeast 361 415 24,100 960 Climbing FlightAware
09:22AM 50.9140 8.5180 38° Northeast 380 437 24,600 900 Climbing FlightAware
09:22AM 50.9660 8.5830 38° Northeast 393 452 25,200 960 Climbing FlightAware
09:23AM 51.0050 8.6310 38° Northeast 400 460 25,700 1,020 Climbing FlightAware
09:23AM 51.0640 8.7040 38° Northeast 411 473 26,400 1,320 Climbing FlightAware
09:24AM 51.1210 8.7710 36° Northeast 409 471 27,400 1,260 Climbing FlightAware
09:25AM 51.1740 8.8240 32° Northeast 415 478 27,900 720 Climbing FlightAware
09:25AM 51.2280 8.8770 32° Northeast 427 491 28,200 480 Climbing FlightAware
09:26AM 51.2930 8.9400 31° Northeast 441 507 28,500 540 Climbing FlightAware
09:26AM 51.3530 8.9980 31° Northeast 449 517 28,900 840 Climbing FlightAware
09:27AM 51.4170 9.0580 30° Northeast 454 522 29,500 960 Climbing FlightAware
09:27AM 51.4840 9.1200 30° Northeast 458 527 30,100 1,020 Climbing FlightAware
09:28AM 51.5450 9.1770 30° Northeast 461 531 30,700 900 Climbing FlightAware
09:29AM 51.6130 9.2400 30° Northeast 466 536 31,200 600 Climbing FlightAware
09:29AM 51.6740 9.2950 29° Northeast 476 548 31,400 300 Climbing FlightAware
09:30AM 51.7430 9.3590 30° Northeast 485 558 31,600 480 Climbing FlightAware
09:30AM 51.8140 9.4230 29° Northeast 493 567 32,000 660 Climbing FlightAware
09:31AM 51.8840 9.4850 29° Northeast 499 574 32,400 720 Climbing FlightAware
09:32AM 51.9570 9.5520 29° Northeast 499 574 32,900 900 Climbing FlightAware
09:32AM 52.0230 9.6120 29° Northeast 496 571 33,500 1,020 Climbing FlightAware
09:33AM 52.0930 9.6760 29° Northeast 492 566 34,100 900 Climbing FlightAware
09:33AM 52.1660 9.7450 30° Northeast 490 564 34,600 540 Climbing FlightAware
09:34AM 52.2350 9.8080 29° Northeast 494 568 34,800 300 Climbing FlightAware
09:34AM 52.3040 9.8750 31° Northeast 499 574 35,000 120 Climbing FlightAware
09:35AM 52.3640 9.9550 39° Northeast 507 583 35,000  Level FlightAware
09:36AM 52.4230 10.0510 45° Northeast 512 589 35,000  Level FlightAware
09:36AM 52.4800 10.1420 44° Northeast 513 590 35,000  Level FlightAware
09:37AM 52.5360 10.2340 45° Northeast 511 588 35,000  Level FlightAware
09:37AM 52.5990 10.3370 45° Northeast 509 586 35,000  Level FlightAware
09:38AM 52.6550 10.4280 45° Northeast 507 583 35,000  Level FlightAware
09:38AM 52.7010 10.5040 45° Northeast 508 585 35,000  Level FlightAware
09:39AM 52.7650 10.6100 45° Northeast 509 586 35,000  Level FlightAware
09:40AM 52.8230 10.7050 45° Northeast 508 585 35,000  Level FlightAware
09:40AM 52.8780 10.7980 46° Northeast 510 587 35,000  Level FlightAware
09:41AM 52.9310 10.8860 45° Northeast 511 588 35,000  Level FlightAware
09:41AM 52.9880 10.9820 45° Northeast 511 588 35,000  Level FlightAware
09:42AM 53.0530 11.0920 45° Northeast 511 588 35,000  Level FlightAware
09:42AM 53.1060 11.1820 46° Northeast 511 588 35,000  Level FlightAware
09:43AM 53.1740 11.2960 45° Northeast 509 586 35,000  Level FlightAware
09:44AM 53.2380 11.4060 46° Northeast 509 586 35,000  Level FlightAware
09:44AM 53.2860 11.4890 46° Northeast 510 587 35,000  Level FlightAware
09:45AM 53.3450 11.5900 46° Northeast 510 587 35,000  Level FlightAware
09:46AM 53.4090 11.7000 46° Northeast 509 586 35,000  Level FlightAware
09:46AM 53.4620 11.7920 46° Northeast 507 583 35,000  Level FlightAware
09:47AM 53.5230 11.8990 46° Northeast 508 585 35,000  Level FlightAware
09:47AM 53.5850 12.0080 46° Northeast 508 585 35,000  Level FlightAware
09:48AM 53.6340 12.0950 46° Northeast 508 585 35,000  Level FlightAware
09:48AM 53.6970 12.2050 46° Northeast 507 583 35,000  Level FlightAware
09:49AM 53.7470 12.2930 46° Northeast 505 581 35,000  Level FlightAware
09:50AM 53.8070 12.4010 47° Northeast 505 581 35,000  Level FlightAware
09:50AM 53.8650 12.5050 47° Northeast 503 579 35,000  Level FlightAware
09:51AM 53.9290 12.6200 47° Northeast 503 579 35,000  Level FlightAware
09:52AM 53.9870 12.7230 46° Northeast 503 579 35,000  Level FlightAware
09:52AM 54.0460 12.8300 47° Northeast 504 580 35,000  Level FlightAware
09:53AM 54.0970 12.9240 47° Northeast 504 580 35,000  Level FlightAware
09:53AM 54.1540 13.0280 47° Northeast 503 579 35,000  Level FlightAware
09:54AM 54.2110 13.1330 47° Northeast 501 577 35,000  Level FlightAware
09:54AM 54.2590 13.2220 47° Northeast 500 575 35,000  Level FlightAware
09:55AM 54.3150 13.3240 47° Northeast 501 577 35,000  Level FlightAware
09:56AM 54.3700 13.4280 48° Northeast 501 577 35,000  Level FlightAware
09:56AM 54.4290 13.5380 47° Northeast 503 579 35,000  Level FlightAware
09:57AM 54.4790 13.6310 47° Northeast 501 577 35,000  Level FlightAware
09:57AM 54.5360 13.7380 47° Northeast 496 571 35,000  Level FlightAware
09:58AM 54.5880 13.8410 49° Northeast 492 566 35,000  Level FlightAware
09:58AM 54.6370 13.9390 49° Northeast 492 566 35,000  Level FlightAware
09:59AM 54.6910 14.0460 49° Northeast 494 568 35,000  Level FlightAware
10:00AM 54.7440 14.1530 49° Northeast 494 568 35,000  Level FlightAware
10:00AM 54.7950 14.2570 50° Northeast 492 566 35,000  Level FlightAware
10:01AM 54.8450 14.3650 51° Northeast 491 565 35,000  Level FlightAware
10:01AM 54.8980 14.4780 51° Northeast 490 564 35,000  Level FlightAware
10:02AM 54.9430 14.5760 51° Northeast 490 564 35,000  Level FlightAware
10:03AM 54.9960 14.6900 51° Northeast 486 559 35,000  Level FlightAware
10:03AM 55.0400 14.7850 51° Northeast 484 557 35,000  Level FlightAware
10:04AM 55.0940 14.9030 51° Northeast 482 555 35,000  Level FlightAware
10:04AM 55.1390 15.0040 52° Northeast 481 554 35,000  Level FlightAware
10:05AM 55.1850 15.1050 51° Northeast 480 552 35,000  Level FlightAware
10:05AM 55.2360 15.2170 51° Northeast 481 554 35,000  Level FlightAware
10:06AM 55.2850 15.3260 52° Northeast 482 555 35,000  Level FlightAware
10:07AM 55.3240 15.4130 52° Northeast 482 555 35,000  Level FlightAware
10:07AM 55.3780 15.5350 52° Northeast 481 554 35,000  Level FlightAware
10:08AM 55.4260 15.6430 52° Northeast 479 551 35,000  Level FlightAware
10:08AM 55.4740 15.7510 52° Northeast 476 548 35,000  Level FlightAware
10:09AM 55.5220 15.8620 53° Northeast 474 545 35,000  Level FlightAware
10:10AM 55.5690 15.9680 52° Northeast 471 542 35,000  Level FlightAware
10:10AM 55.6210 16.0870 52° Northeast 470 541 35,000  Level FlightAware
10:10AM 55.6380 16.1260 52° Northeast 472 543 35,000  Level FlightAware
10:11AM 55.7200 16.3150 52° Northeast 476 548 35,000  Level FlightAware
10:12AM 55.7620 16.4140 53° Northeast 473 544 35,000  Level FlightAware
10:13AM 55.8120 16.5300 52° Northeast 472 543 35,000  Level FlightAware
10:13AM 55.8550 16.6320 53° Northeast 471 542 35,000  Level FlightAware
10:14AM 55.9040 16.7470 53° Northeast 470 541 35,000  Level FlightAware
10:14AM 55.9460 16.8460 53° Northeast 470 541 35,000  Level FlightAware
10:15AM 55.9950 16.9610 53° Northeast 472 543 35,000  Level FlightAware
10:16AM 56.0390 17.0680 54° Northeast 471 542 35,000  Level FlightAware
10:16AM 56.0820 17.1710 53° Northeast 469 540 35,000  Level FlightAware
10:17AM 56.1260 17.2780 54° Northeast 466 536 35,000  Level FlightAware
10:17AM 56.1740 17.3930 53° Northeast 464 534 35,000  Level FlightAware
10:18AM 56.2220 17.5090 53° Northeast 462 532 35,000  Level FlightAware
10:18AM 56.2620 17.6070 54° Northeast 462 532 35,000  Level FlightAware
10:19AM 56.3090 17.7230 54° Northeast 462 532 35,000  Level FlightAware
10:20AM 56.3460 17.8140 54° Northeast 461 531 35,000  Level FlightAware
10:20AM 56.3870 17.9160 54° Northeast 461 531 35,000  Level FlightAware
10:21AM 56.4280 18.0160 53° Northeast 461 531 35,000  Level FlightAware
10:21AM 56.4740 18.1320 54° Northeast 460 529 35,000  Level FlightAware
10:22AM 56.5190 18.2460 54° Northeast 459 528 35,000  Level FlightAware
10:23AM 56.5690 18.3710 54° Northeast 460 529 35,000  Level FlightAware
10:23AM 56.6120 18.4790 54° Northeast 459 528 35,000  Level FlightAware
10:24AM 56.6520 18.5800 54° Northeast 460 529 35,000  Level FlightAware
10:24AM 56.6990 18.7020 55° Northeast 460 529 35,000  Level FlightAware
10:25AM 56.7390 18.8030 54° Northeast 460 529 35,000  Level FlightAware
10:25AM 56.7830 18.9170 55° Northeast 460 529 35,000  Level FlightAware
10:26AM 56.8230 19.0220 55° Northeast 460 529 35,000  Level FlightAware
10:27AM 56.8700 19.1430 55° Northeast 461 531 35,000  Level FlightAware
10:27AM 56.9070 19.2390 55° Northeast 461 531 35,000  Level FlightAware
10:28AM 56.9530 19.3600 55° Northeast 461 531 35,000  Level FlightAware
10:28AM 56.9990 19.4810 55° Northeast 462 532 35,000  Level FlightAware
10:29AM 57.0380 19.5840 55° Northeast 460 529 35,000  Level FlightAware
10:30AM 57.0840 19.7090 56° Northeast 460 529 35,000  Level FlightAware
10:30AM 57.1220 19.8100 55° Northeast 461 531 35,000  Level FlightAware
10:31AM 57.1650 19.9290 56° Northeast 460 529 35,000  Level FlightAware
10:31AM 57.1990 20.0530 63° Northeast 457 526 35,000  Level FlightAware
10:32AM 57.2280 20.1640 64° Northeast 458 527 35,000  Level FlightAware
10:32AM 57.2630 20.2970 64° Northeast 460 529 35,000  Level FlightAware
10:33AM 57.2980 20.4310 64° Northeast 462 532 35,000  Level FlightAware
10:34AM 57.3290 20.5530 65° Northeast 464 534 35,000  Level FlightAware
10:34AM 57.3640 20.6890 64° Northeast 466 536 35,000  Level FlightAware
10:35AM 57.3980 20.8240 65° Northeast 467 537 35,000  Level FlightAware
10:35AM 57.4290 20.9440 64° Northeast 468 539 35,000  Level FlightAware
10:36AM 57.4610 21.0720 65° Northeast 468 539 35,000  Level FlightAware
10:37AM 57.4990 21.2230 65° Northeast 469 540 35,000  Level FlightAware
10:37AM 57.5280 21.3400 65° Northeast 468 539 35,000  Level FlightAware
10:38AM 57.5630 21.4810 65° Northeast 468 539 35,000  Level FlightAware
10:39AM 57.5940 21.6070 65° Northeast 467 537 35,000  Level FlightAware
10:39AM 57.6260 21.7390 66° East 469 540 35,000  Level FlightAware
10:40AM 57.6580 21.8700 65° Northeast 470 541 35,000  Level FlightAware
10:40AM 57.6890 21.9960 65° Northeast 471 542 35,000 180 Level FlightAware
10:41AM 57.7260 22.1520 66° East 474 545 35,300 660 Climbing FlightAware
10:42AM 57.7570 22.2810 66° East 470 541 35,900 1,020 Climbing FlightAware
10:42AM 57.7870 22.4090 66° East 466 536 36,500 840 Climbing FlightAware
10:43AM 57.8180 22.5430 66° East 467 537 36,900 360 Climbing FlightAware
10:43AM 57.8490 22.6740 66° East 471 542 37,000 60 Climbing FlightAware
10:44AM 57.8760 22.7920 67° East 474 545 37,000  Level FlightAware
10:44AM 57.9100 22.9380 66° East 474 545 37,000  Level FlightAware
10:45AM 57.9380 23.0600 67° East 473 544 37,000  Level FlightAware
10:46AM 57.9680 23.1930 67° East 472 543 37,000  Level FlightAware
10:46AM 57.9990 23.3310 67° East 474 545 37,000  Level FlightAware
10:47AM 58.0270 23.4540 67° East 474 545 37,000  Level FlightAware
10:47AM 58.0560 23.5860 67° East 475 547 37,000  Level FlightAware
10:48AM 58.0870 23.7240 67° East 474 545 37,000  Level FlightAware
10:48AM 58.1150 23.8490 67° East 475 547 37,000  Level FlightAware
10:49AM 58.1460 23.9940 68° East 474 545 37,000  Level FlightAware
10:50AM 58.1750 24.1270 67° East 474 545 37,000  Level FlightAware
10:50AM 58.2040 24.2590 67° East 474 545 37,000  Level FlightAware
10:51AM 58.2320 24.3920 68° East 472 543 37,000  Level FlightAware
10:51AM 58.2630 24.5360 68° East 472 543 37,000  Level FlightAware
10:52AM 58.2910 24.6650 68° East 472 543 37,000  Level FlightAware
10:53AM 58.3200 24.8070 69° East 472 543 37,000  Level FlightAware
10:53AM 58.3500 24.9470 68° East 473 544 37,000  Level FlightAware
10:54AM 58.3770 25.0760 68° East 474 545 37,000  Level FlightAware
10:54AM 58.4040 25.2080 69° East 474 545 37,000  Level FlightAware
10:55AM 58.4310 25.3390 68° East 473 544 37,000  Level FlightAware
10:56AM 58.4600 25.4850 69° East 473 544 37,000  Level FlightAware
10:56AM 58.4860 25.6140 69° East 472 543 37,000  Level FlightAware
10:57AM 58.5150 25.7560 69° East 473 544 37,000  Level FlightAware
10:57AM 58.5440 25.9000 69° East 473 544 37,000  Level FlightAware
10:58AM 58.5680 26.0200 69° East 472 543 37,000  Level FlightAware
10:58AM 58.5950 26.1610 70° East 471 542 37,000  Level FlightAware
10:59AM 58.6220 26.2980 69° East 468 539 37,000  Level FlightAware
11:00AM 58.6480 26.4290 69° East 469 540 37,000  Level FlightAware
11:00AM 58.6740 26.5640 70° East 469 540 37,000  Level FlightAware
11:01AM 58.7010 26.7090 70° East 468 539 37,000  Level FlightAware
11:01AM 58.7260 26.8380 69° East 468 539 37,000  Level FlightAware
11:02AM 58.7510 26.9720 70° East 468 539 37,000  Level FlightAware
11:03AM 58.7800 27.1240 70° East 469 540 37,000  Level FlightAware
11:03AM 58.8030 27.2490 70° East 470 541 37,000  Level FlightAware
11:04AM 58.8300 27.3950 70° East 469 540 37,000  Level FlightAware
11:04AM 58.8500 27.5370 75° East 472 543 37,000  Level FlightAware
11:05AM 58.8640 27.6690 78° East 472 543 37,000  Level FlightAware
11:05AM 58.8800 27.8260 79° East 474 545 37,000  Level FlightAware
11:06AM 58.8950 27.9670 78° East 474 545 37,000  Level FlightAware
11:07AM 58.9100 28.1130 79° East 475 547 37,000  Level FlightAware
11:07AM 58.9250 28.2650 79° East 474 545 37,000  Level FlightAware
11:08AM 58.9380 28.4000 79° East 472 543 37,000  Level FlightAware
11:08AM 58.9510 28.5450 80° East 470 541 37,000  Level FlightAware
11:09AM 58.9630 28.6830 80° East 468 539 37,000  Level FlightAware
11:09AM 58.9760 28.8330 80° East 467 537 37,000  Level FlightAware
11:10AM 58.9880 28.9730 80° East 463 533 37,000  Level FlightAware
11:11AM 59.0120 29.1340 74° East 462 532 37,000  Level FlightAware
11:12AM 59.0510 29.3030 66° East 462 532 37,000  Level FlightAware
11:12AM 59.0850 29.4310 63° Northeast 460 529 37,000  Level FlightAware
11:13AM 59.1150 29.5450 63° Northeast 458 527 37,000  Level FlightAware
11:13AM 59.1530 29.6860 62° Northeast 457 526 37,000  Level FlightAware
11:14AM 59.1860 29.8110 63° Northeast 455 524 37,000  Level FlightAware
11:14AM 59.2150 29.9210 63° Northeast 453 521 37,000  Level FlightAware
11:15AM 59.2470 30.0460 63° Northeast 454 522 37,000  Level FlightAware
11:16AM 59.2820 30.1790 63° Northeast 454 522 37,000  Level FlightAware
11:16AM 59.3180 30.3190 63° Northeast 454 522 37,000  Level FlightAware
11:17AM 59.3480 30.4350 63° Northeast 455 524 37,000  Level FlightAware
11:17AM 59.3850 30.5790 63° Northeast 456 525 37,000  Level FlightAware
11:18AM 59.4110 30.6850 64° Northeast 455 524 37,000  Level FlightAware
11:18AM 59.4430 30.8080 63° Northeast 454 522 37,000  Level FlightAware
11:19AM 59.4840 30.9720 64° Northeast 453 521 37,000  Level FlightAware
11:20AM 59.5170 31.1080 64° Northeast 453 521 37,000  Level FlightAware
11:20AM 59.5450 31.2200 64° Northeast 450 518 37,000  Level FlightAware
11:21AM 59.5790 31.3620 65° Northeast 448 516 37,000  Level FlightAware
11:21AM 59.6070 31.4760 64° Northeast 446 513 37,000  Level FlightAware
11:22AM 59.6380 31.6000 64° Northeast 446 513 37,000  Level FlightAware
11:23AM 59.6720 31.7430 65° Northeast 444 511 37,000  Level FlightAware
11:23AM 59.6990 31.8530 64° Northeast 443 510 37,000  Level FlightAware
11:24AM 59.7340 32.0000 65° Northeast 442 509 37,000  Level FlightAware
11:24AM 59.7630 32.1200 64° Northeast 442 509 37,000  Level FlightAware
11:25AM 59.7950 32.2550 65° Northeast 442 509 37,000  Level FlightAware
11:25AM 59.8170 32.3650 68° East 437 503 37,000  Level FlightAware
11:26AM 59.8350 32.4980 75° East 432 497 37,000  Level FlightAware
11:27AM 59.8530 32.6490 77° East 429 494 37,000  Level FlightAware
11:27AM 59.8690 32.7870 77° East 428 493 37,000  Level FlightAware
11:28AM 59.8840 32.9160 77° East 428 493 37,000  Level FlightAware
11:28AM 59.9010 33.0570 76° East 427 491 37,000  Level FlightAware
11:29AM 59.9170 33.1970 77° East 428 493 37,000  Level FlightAware
11:30AM 59.9340 33.3520 78° East 429 494 37,000  Level FlightAware
11:30AM 59.9470 33.4650 77° East 430 495 37,000  Level FlightAware
11:31AM 59.9630 33.6090 77° East 430 495 37,000  Level FlightAware
11:31AM 59.9780 33.7400 77° East 430 495 37,000  Level FlightAware
11:32AM 59.9930 33.8800 78° East 430 495 37,000  Level FlightAware
11:33AM 60.0080 34.0200 78° East 430 495 37,000  Level FlightAware
11:33AM 60.0220 34.1450 77° East 431 496 37,000  Level FlightAware
11:34AM 60.0370 34.2880 78° East 431 496 37,000  Level FlightAware
11:34AM 60.0510 34.4240 78° East 431 496 37,000  Level FlightAware
11:35AM 60.0650 34.5610 78° East 431 496 37,000  Level FlightAware
11:36AM 60.0800 34.7030 78° East 431 496 37,000  Level FlightAware
11:36AM 60.0920 34.8210 78° East 432 497 37,000  Level FlightAware
11:37AM 60.1080 34.9800 79° East 433 498 37,000  Level FlightAware
11:37AM 60.1210 35.1160 79° East 434 499 37,000  Level FlightAware
11:38AM 60.1370 35.2750 79° East 433 498 37,000  Level FlightAware
11:39AM 60.1520 35.4350 79° East 432 497 37,000  Level FlightAware
11:39AM 60.1650 35.5670 79° East 431 496 37,000  Level FlightAware
11:40AM 60.1800 35.7270 79° East 432 497 37,000  Level FlightAware
11:40AM 60.1930 35.8640 79° East 432 497 37,000  Level FlightAware
11:41AM 60.2040 35.9790 79° East 433 498 37,000  Level FlightAware
11:42AM 60.2170 36.1180 79° East 434 499 37,000  Level FlightAware
11:42AM 60.2290 36.2580 80° East 435 501 37,000  Level FlightAware
11:43AM 60.2420 36.3990 79° East 436 502 37,000  Level FlightAware
11:43AM 60.2550 36.5370 79° East 437 503 37,000  Level FlightAware
11:44AM 60.2670 36.6760 80° East 438 504 37,000  Level FlightAware
11:45AM 60.2810 36.8400 80° East 439 505 37,000  Level FlightAware
11:45AM 60.2910 36.9590 80° East 440 506 37,000  Level FlightAware
11:46AM 60.3030 37.1010 80° East 442 509 37,000  Level FlightAware
11:46AM 60.3150 37.2420 80° East 443 510 37,000  Level FlightAware
11:47AM 60.3290 37.4060 80° East 445 512 37,000  Level FlightAware
11:47AM 60.3400 37.5500 81° East 445 512 37,000  Level FlightAware
11:48AM 60.3520 37.6920 80° East 444 511 37,000  Level FlightAware
11:49AM 60.3610 37.8140 81° East 443 510 37,000  Level FlightAware
11:49AM 60.3720 37.9440 80° East 443 510 37,000  Level FlightAware
11:50AM 60.3850 38.1190 81° East 443 510 37,000  Level FlightAware
11:50AM 60.3940 38.2390 81° East 442 509 37,000  Level FlightAware
11:51AM 60.4050 38.3910 82° East 442 509 37,000  Level FlightAware
11:52AM 60.4150 38.5190 81° East 443 510 37,000  Level FlightAware
11:52AM 60.4270 38.6940 82° East 442 509 37,000  Level FlightAware
11:53AM 60.4380 38.8490 82° East 442 509 37,000  Level FlightAware
11:53AM 60.4470 38.9730 82° East 442 509 37,000  Level FlightAware
11:54AM 60.4580 39.1350 82° East 442 509 37,000  Level FlightAware
11:55AM 60.4670 39.2710 82° East 442 509 37,000  Level FlightAware
11:55AM 60.4760 39.4030 82° East 442 509 37,000  Level FlightAware
11:56AM 60.4860 39.5480 82° East 440 506 37,000  Level FlightAware
11:56AM 60.4950 39.6950 83° East 439 505 37,000  Level FlightAware
11:57AM 60.5040 39.8270 82° East 438 504 37,000  Level FlightAware
11:58AM 60.5140 39.9930 83° East 439 505 37,000  Level FlightAware
11:58AM 60.5230 40.1480 83° East 440 506 37,000  Level FlightAware
11:59AM 60.5330 40.3090 83° East 439 505 37,000  Level FlightAware
11:59AM 60.5410 40.4390 83° East 439 505 37,000  Level FlightAware
12:00PM 60.5500 40.6110 84° East 437 503 37,000  Level FlightAware
12:01PM 60.5600 40.7730 83° East 437 503 37,000  Level FlightAware
12:01PM 60.5680 40.9290 84° East 436 502 37,000  Level FlightAware
12:02PM 60.5770 41.0920 84° East 436 502 37,000  Level FlightAware
12:03PM 60.5900 41.2540 81° East 435 501 37,000  Level FlightAware
12:03PM 60.6070 41.3810 75° East 434 499 37,000  Level FlightAware
12:04PM 60.6280 41.5360 74° East 435 501 37,000  Level FlightAware
12:05PM 60.6460 41.6710 75° East 436 502 37,000  Level FlightAware
12:05PM 60.6710 41.8490 74° East 435 501 37,000  Level FlightAware
12:06PM 60.6980 42.0500 75° East 431 496 37,000  Level FlightAware
12:07PM 60.7160 42.1870 75° East 430 495 37,000  Level FlightAware
12:07PM 60.7340 42.3250 75° East 428 493 37,000  Level FlightAware
12:08PM 60.7510 42.4580 75° East 426 490 37,000  Level FlightAware
12:08PM 60.7710 42.6120 75° East 425 489 37,000  Level FlightAware
12:09PM 60.7890 42.7500 75° East 425 489 37,000  Level FlightAware
12:10PM 60.8050 42.8790 76° East 426 490 37,000  Level FlightAware
12:10PM 60.8220 43.0050 74° East 426 490 37,000  Level FlightAware
12:11PM 60.8380 43.1310 75° East 426 490 37,000  Level FlightAware
12:11PM 60.8540 43.2510 75° East 426 490 37,000  Level FlightAware
12:12PM 60.8690 43.3710 76° East 426 490 37,000  Level FlightAware
12:13PM 60.8840 43.4840 75° East 426 490 37,000  Level FlightAware
12:13PM 60.9000 43.6030 74° East 426 490 37,000  Level FlightAware
12:16PM 60.9325 44.1954 83° East  Level Estimated
12:16PM 60.9770 44.2000 83° East 426 490 37,000  Level FlightAware
12:17PM 60.9930 44.3200 75° East 426 490 37,000  Level FlightAware
12:19PM 61.0151 44.7649 84° East  Level Estimated
12:19PM 61.0400 44.6840 84° East 426 490 37,000  Level FlightAware
12:21PM 61.0629 45.1770 84° East  Level Estimated
12:22PM 61.0742 45.4345 85° East  Level Estimated
12:23PM 61.0849 45.6922 85° East  Level Estimated
12:24PM 61.0952 45.9501 85° East  Level Estimated
12:25PM 61.1050 46.2081 85° East  Level Estimated
12:26PM 61.1143 46.4663 86° East  Level Estimated
12:27PM 61.1231 46.7246 86° East  Level Estimated
12:28PM 61.1314 46.9831 86° East  Level Estimated
12:29PM 61.1392 47.2417 86° East  Level Estimated
12:30PM 61.1465 47.5004 87° East  Level Estimated
12:31PM 61.1533 47.7593 87° East  Level Estimated
12:31PM 61.3910 48.0980 87° East 442 509 37,000  Level FlightAware
12:32PM 61.4060 48.2360 77° East 443 510 37,000  Level FlightAware
12:32PM 61.4220 48.4000 78° East 441 507 37,000  Level FlightAware
12:33PM 61.4410 48.5790 77° East 441 507 37,000  Level FlightAware
12:34PM 61.4550 48.7230 78° East 440 506 37,000  Level FlightAware
12:35PM 61.4810 48.9880 78° East 440 506 37,000  Level FlightAware
12:35PM 61.5000 49.1820 78° East 440 506 37,000  Level FlightAware
12:36PM 61.5130 49.3100 78° East 440 506 37,000  Level FlightAware
12:37PM 61.5290 49.4970 80° East 437 503 37,000  Level FlightAware
12:37PM 61.5420 49.6410 79° East 437 503 37,000  Level FlightAware
12:38PM 61.5580 49.8160 79° East 438 504 37,000  Level FlightAware
12:39PM 61.5760 50.0170 79° East 439 505 37,000  Level FlightAware
12:39PM 61.5890 50.1680 80° East 440 506 37,000  Level FlightAware
12:40PM 61.6030 50.3250 79° East 438 504 37,000  Level FlightAware
12:41PM 61.6150 50.4650 80° East 435 501 37,000  Level FlightAware
12:41PM 61.6260 50.5950 80° East 435 501 37,000  Level FlightAware
12:42PM 61.6380 50.7400 80° East 434 499 37,000  Level FlightAware
12:42PM 61.6490 50.9110 82° East 436 502 37,000  Level FlightAware
12:43PM 61.6530 51.0570 87° East 435 501 37,000  Level FlightAware
12:44PM 61.6580 51.2260 86° East 435 501 37,000  Level FlightAware
12:44PM 61.6610 51.3410 87° East 436 502 37,000  Level FlightAware
12:45PM 61.6660 51.5030 86° East 436 502 37,000  Level FlightAware
12:45PM 61.6700 51.6530 87° East 436 502 37,000  Level FlightAware
12:46PM 61.6730 51.8030 88° East 436 502 37,000  Level FlightAware
12:46PM 61.6760 51.9320 87° East 436 502 37,000  Level FlightAware
12:47PM 61.6800 52.0960 87° East 436 502 37,000  Level FlightAware
12:48PM 61.6830 52.2480 88° East 436 502 37,000  Level FlightAware
12:48PM 61.6860 52.3870 87° East 437 503 37,000  Level FlightAware
12:49PM 61.6890 52.5470 88° East 437 503 37,000  Level FlightAware
12:49PM 61.6910 52.6770 88° East 438 504 37,000  Level FlightAware
12:50PM 61.6940 52.8270 88° East 438 504 37,000  Level FlightAware
12:51PM 61.6960 52.9920 88° East 439 505 37,000  Level FlightAware
12:51PM 61.6990 53.1380 87° East 439 505 37,000  Level FlightAware
12:52PM 61.7010 53.2860 88° East 439 505 37,000  Level FlightAware
12:52PM 61.7030 53.4520 88° East 438 504 37,000  Level FlightAware
12:53PM 61.7050 53.6350 89° East 437 503 37,000  Level FlightAware
12:54PM 61.7060 53.7980 89° East 437 503 37,000  Level FlightAware
12:54PM 61.7080 53.9630 88° East 438 504 37,000  Level FlightAware
12:55PM 61.7090 54.0920 89° East 438 504 37,000  Level FlightAware
12:56PM 61.7100 54.2660 89° East 437 503 37,000  Level FlightAware
12:56PM 61.7110 54.4030 89° East 437 503 37,000  Level FlightAware
12:57PM 61.7120 54.5940 89° East 438 504 37,000  Level FlightAware
12:58PM 61.7120 54.7690 90° East 438 504 37,000  Level FlightAware
12:58PM 61.7120 54.9370 90° East 438 504 37,000  Level FlightAware
12:59PM 61.7130 55.0810 89° East 437 503 37,000  Level FlightAware
12:59PM 61.7120 55.2370 91° East 436 502 37,000  Level FlightAware
01:00PM 61.7120 55.4370 90° East 434 499 37,000  Level FlightAware
01:01PM 61.7110 55.6600 90° East 433 498 37,000  Level FlightAware
01:02PM 61.7100 55.8480 91° East 434 499 37,000  Level FlightAware
01:02PM 61.7100 55.9600 90° East 434 499 37,000  Level FlightAware
01:03PM 61.7090 56.0730 91° East 434 499 37,000  Level FlightAware
01:03PM 61.7070 56.2930 91° East 435 501 37,000  Level FlightAware
01:04PM 61.7060 56.4380 91° East 436 502 37,000  Level FlightAware
01:05PM 61.7040 56.6030 91° East 437 503 37,000  Level FlightAware
01:05PM 61.7030 56.7340 91° East 438 504 37,000  Level FlightAware
01:06PM 61.7010 56.8460 92° East 437 503 37,000  Level FlightAware
01:06PM 61.6960 57.0290 93° East 438 504 37,000  Level FlightAware
01:07PM 61.6900 57.1920 94° East 439 505 37,000  Level FlightAware
01:08PM 61.6830 57.3560 95° East 438 504 37,000  Level FlightAware
01:08PM 61.6760 57.5230 95° East 439 505 37,000  Level FlightAware
01:09PM 61.6710 57.6530 95° East 438 504 37,000  Level FlightAware
01:09PM 61.6660 57.7690 95° East 438 504 37,000  Level FlightAware
01:10PM 61.6590 57.9340 95° East 439 505 37,000  Level FlightAware
01:11PM 61.6500 58.1450 95° East 440 506 37,000  Level FlightAware
01:11PM 61.6430 58.2870 96° East 442 509 37,000  Level FlightAware
01:12PM 61.6330 58.4840 96° East 442 509 37,000  Level FlightAware
01:13PM 61.6260 58.6340 96° East 443 510 37,000  Level FlightAware
01:13PM 61.6180 58.8030 96° East 442 509 37,000  Level FlightAware
01:14PM 61.6100 58.9600 96° East 442 509 37,000  Level FlightAware
01:15PM 61.6040 59.0820 96° East 442 509 37,000  Level FlightAware
01:15PM 61.5930 59.2870 96° East 442 509 37,000  Level FlightAware
01:16PM 61.5870 59.4210 95° East 442 509 37,000  Level FlightAware
01:17PM 61.5800 59.5560 96° East 442 509 37,000  Level FlightAware
01:17PM 61.5730 59.6870 96° East 442 509 37,000  Level FlightAware
01:18PM 61.5600 59.9150 97° East 445 512 37,000  Level FlightAware
01:18PM 61.5530 60.0470 96° East 445 512 37,000  Level FlightAware
01:19PM 61.5460 60.1780 96° East 445 512 37,000  Level FlightAware
01:20PM 61.5400 60.3100 95° East 445 512 37,000  Level FlightAware
01:20PM 61.5330 60.4410 96° East 445 512 37,000  Level FlightAware
01:21PM 61.5270 60.5650 96° East 445 512 37,000  Level FlightAware
01:21PM 61.5200 60.6970 96° East 445 512 37,000  Level FlightAware
01:22PM 61.5140 60.8280 95° East 445 512 37,000  Level FlightAware
01:23PM 61.5070 60.9630 96° East 445 512 37,000  Level FlightAware
01:23PM 61.5010 61.0870 96° East 445 512 37,000  Level FlightAware
01:24PM 61.4940 61.2180 96° East 445 512 37,000  Level FlightAware
01:24PM 61.4880 61.3500 95° East 445 512 37,000  Level FlightAware
01:25PM 61.4810 61.4840 96° East 445 512 37,000  Level FlightAware
01:26PM 61.4740 61.6160 96° East 445 512 37,000  Level FlightAware
01:26PM 61.4670 61.7500 96° East 445 512 37,000  Level FlightAware
01:27PM 61.4610 61.8740 96° East 445 512 37,000  Level FlightAware
01:29PM 61.4225 62.3247 100° East  Level Estimated
01:30PM 61.3998 62.5818 100° East  Level Estimated
01:31PM 61.3766 62.8385 101° East  Level Estimated
01:32PM 61.3530 63.0948 101° East  Level Estimated
01:33PM 61.3288 63.3507 101° East  Level Estimated
01:34PM 61.3042 63.6062 101° East  Level Estimated
01:35PM 61.2791 63.8613 101° East  Level Estimated
01:36PM 61.2536 64.1160 102° East  Level Estimated
01:37PM 61.2275 64.3702 102° East  Level Estimated
01:38PM 61.2010 64.6241 102° East  Level Estimated
01:39PM 61.1740 64.8775 102° East  Level Estimated
01:40PM 61.1465 65.1305 103° East  Level Estimated
01:41PM 61.1186 65.3830 103° East  Level Estimated
01:42PM 61.0902 65.6351 103° East  Level Estimated
01:43PM 61.0613 65.8867 103° East  Level Estimated
01:44PM 61.0320 66.1379 103° East  Level Estimated
01:44PM 60.8880 66.4690 103° East 466 536 37,000  Level FlightAware
01:44PM 60.8610 66.6430 108° East 467 537 37,000  Level FlightAware
01:45PM 60.8380 66.7890 108° East 467 537 37,000  Level FlightAware
01:46PM 60.8040 67.0070 108° East 467 537 37,000  Level FlightAware
01:46PM 60.7760 67.1800 108° East 468 539 37,000  Level FlightAware
01:47PM 60.7450 67.3680 109° East 467 537 37,000  Level FlightAware
01:48PM 60.7210 67.5170 108° East 467 537 37,000  Level FlightAware
01:48PM 60.6930 67.6890 108° East 468 539 37,000  Level FlightAware
01:49PM 60.6600 67.8820 109° East 468 539 37,000  Level FlightAware
01:50PM 60.6360 68.0230 109° East 470 541 37,000  Level FlightAware
01:50PM 60.6060 68.1970 109° East 471 542 37,000  Level FlightAware
01:51PM 60.5820 68.3370 109° East 473 544 37,000  Level FlightAware
01:52PM 60.5550 68.4960 109° East 474 545 37,000  Level FlightAware
01:52PM 60.5220 68.6800 110° East 475 547 37,000  Level FlightAware
01:53PM 60.4960 68.8290 109° East 475 547 37,000  Level FlightAware
01:54PM 60.4520 69.0730 110° East 474 545 37,000  Level FlightAware
01:54PM 60.4260 69.2180 110° East 473 544 37,000  Level FlightAware
01:55PM 60.4000 69.3600 110° East 475 547 37,000  Level FlightAware
01:56PM 60.3740 69.5070 110° East 476 548 37,000  Level FlightAware
01:56PM 60.3440 69.6710 110° East 476 548 37,000  Level FlightAware
01:57PM 60.3110 69.8450 111° Southeast 477 549 37,000  Level FlightAware
01:58PM 60.2750 70.0420 110° East 476 548 37,000  Level FlightAware
01:59PM 60.2190 70.3330 111° Southeast 481 554 37,000  Level FlightAware
02:00PM 60.1900 70.4860 111° Southeast 482 555 37,000  Level FlightAware
02:00PM 60.1640 70.6210 111° Southeast 482 555 37,000  Level FlightAware
02:01PM 60.1260 70.8130 112° Southeast 482 555 37,000  Level FlightAware
02:02PM 60.0930 70.9820 111° Southeast 481 554 37,000  Level FlightAware
02:02PM 60.0690 71.1040 111° Southeast 479 551 37,000  Level FlightAware
02:03PM 60.0430 71.2330 112° Southeast 479 551 37,000  Level FlightAware
02:03PM 60.0100 71.3970 112° Southeast 477 549 37,000  Level FlightAware
02:04PM 59.9850 71.5190 112° Southeast 477 549 37,000  Level FlightAware
02:05PM 59.9490 71.6990 112° Southeast 476 548 37,000  Level FlightAware
02:05PM 59.9180 71.8470 113° Southeast 477 549 37,000  Level FlightAware
02:06PM 59.8840 72.0100 113° Southeast 477 549 37,000  Level FlightAware
02:06PM 59.8580 72.1330 113° Southeast 478 550 37,000  Level FlightAware
02:07PM 59.8280 72.2760 113° Southeast 479 551 37,000  Level FlightAware
02:07PM 59.7980 72.4210 112° Southeast 480 552 37,000  Level FlightAware
02:08PM 59.7670 72.5640 113° Southeast 482 555 37,000  Level FlightAware
02:09PM 59.7340 72.7180 113° Southeast 483 556 37,000  Level FlightAware
02:09PM 59.7070 72.8440 113° Southeast 484 557 37,000  Level FlightAware
02:10PM 59.6740 72.9940 113° Southeast 482 555 37,000  Level FlightAware
02:10PM 59.6430 73.1360 113° Southeast 481 554 37,000  Level FlightAware
02:11PM 59.6130 73.2750 113° Southeast 482 555 37,000  Level FlightAware
02:12PM 59.5810 73.4180 114° Southeast 481 554 37,000  Level FlightAware
02:12PM 59.5540 73.5390 114° Southeast 481 554 37,000  Level FlightAware
02:13PM 59.5310 73.6400 114° Southeast 434 499 37,000  Level FlightAware
02:13PM 59.4950 73.8000 114° Southeast 458 527 37,000  Level FlightAware
02:14PM 59.4590 73.9590 114° Southeast 489 563 37,000  Level FlightAware
02:14PM 59.4270 74.0980 114° Southeast 489 563 37,000  Level FlightAware
02:15PM 59.3990 74.2220 114° Southeast 489 563 37,000  Level FlightAware
02:16PM 59.3710 74.3460 114° Southeast 489 563 37,000  Level FlightAware
02:16PM 59.3110 74.5740 117° Southeast 487 560 37,000  Level FlightAware
02:17PM 59.2560 74.7170 127° Southeast 402 463 37,000  Level FlightAware
02:18PM 59.1470 75.0210 125° Southeast 488 562 37,000  Level FlightAware
02:19PM 59.1030 75.1400 126° Southeast 488 562 37,000  Level FlightAware
02:20PM 59.0510 75.2810 126° Southeast 489 563 37,000  Level FlightAware
02:20PM 58.9980 75.4260 125° Southeast 490 564 37,000  Level FlightAware
02:21PM 58.9540 75.5460 125° Southeast 491 565 37,000  Level FlightAware
02:21PM 58.9060 75.6750 126° Southeast 492 566 37,000  Level FlightAware
02:22PM 58.8540 75.8140 126° Southeast 493 567 37,000  Level FlightAware
02:23PM 58.7890 75.9850 126° Southeast 493 567 37,000  Level FlightAware
02:24PM 58.7460 76.1000 126° Southeast 493 567 37,000  Level FlightAware
02:24PM 58.6800 76.2720 126° Southeast 490 564 37,000  Level FlightAware
02:25PM 58.6250 76.4170 126° Southeast 489 563 37,000  Level FlightAware
02:26PM 58.5610 76.6120 122° Southeast 490 564 37,000  Level FlightAware
02:27PM 58.5240 76.7690 114° Southeast 488 562 37,000  Level FlightAware
02:27PM 58.4900 76.9020 116° Southeast 487 560 37,000  Level FlightAware
02:28PM 58.4500 77.0580 116° Southeast 486 559 37,000  Level FlightAware
02:28PM 58.4190 77.1790 116° Southeast 486 559 37,000  Level FlightAware
02:29PM 58.3890 77.2970 116° Southeast 486 559 37,000  Level FlightAware
02:30PM 58.3590 77.4150 116° Southeast 486 559 37,000  Level FlightAware
02:30PM 58.3290 77.5330 116° Southeast 486 559 37,000  Level FlightAware
02:31PM 58.2990 77.6510 116° Southeast 486 559 37,000  Level FlightAware
02:31PM 58.2370 77.8760 118° Southeast 487 560 37,000  Level FlightAware
02:32PM 58.2010 78.0100 117° Southeast 488 562 37,000  Level FlightAware
02:32PM 58.1700 78.1270 117° Southeast 488 562 37,000  Level FlightAware
02:33PM 58.1300 78.2750 117° Southeast 488 562 37,000  Level FlightAware
02:34PM 58.0880 78.4310 117° Southeast 490 564 37,000  Level FlightAware
02:34PM 58.0510 78.5650 118° Southeast 490 564 37,000  Level FlightAware
02:35PM 58.0150 78.6970 117° Southeast 491 565 37,000  Level FlightAware
02:36PM 57.9780 78.8290 118° Southeast 489 563 37,000  Level FlightAware
02:36PM 57.9420 78.9610 117° Southeast 489 563 37,000  Level FlightAware
02:37PM 57.8990 79.1130 118° Southeast 490 564 37,000  Level FlightAware
02:37PM 57.8640 79.2370 118° Southeast 491 565 37,000  Level FlightAware
02:38PM 57.8260 79.3720 118° Southeast 491 565 37,000  Level FlightAware
02:39PM 57.7880 79.5050 118° Southeast 490 564 37,000  Level FlightAware
02:39PM 57.7510 79.6360 118° Southeast 490 564 37,000  Level FlightAware
02:40PM 57.7090 79.7820 118° Southeast 489 563 37,000  Level FlightAware
02:40PM 57.6640 79.9320 119° Southeast 491 565 37,000  Level FlightAware
02:41PM 57.6260 80.0620 119° Southeast 491 565 37,000  Level FlightAware
02:42PM 57.5880 80.1900 119° Southeast 492 566 37,000  Level FlightAware
02:42PM 57.5490 80.3200 119° Southeast 493 567 37,000  Level FlightAware
02:43PM 57.5100 80.4500 119° Southeast 493 567 37,000  Level FlightAware
02:43PM 57.4690 80.5860 119° Southeast 494 568 37,000  Level FlightAware
02:44PM 57.4310 80.7100 120° Southeast 493 567 37,000  Level FlightAware
02:45PM 57.3930 80.8330 120° Southeast 492 566 37,000  Level FlightAware
02:45PM 57.3530 80.9650 119° Southeast 491 565 37,000  Level FlightAware
02:46PM 57.3140 81.0910 120° Southeast 490 564 37,000  Level FlightAware
02:46PM 57.2700 81.2330 120° Southeast 490 564 37,000  Level FlightAware
02:47PM 57.2230 81.3800 121° Southeast 491 565 37,000  Level FlightAware
02:48PM 57.1890 81.4900 120° Southeast 492 566 37,000  Level FlightAware
02:48PM 57.1500 81.6140 120° Southeast 494 568 37,000  Level FlightAware
02:49PM 57.1080 81.7440 121° Southeast 495 570 37,000  Level FlightAware
02:49PM 57.0690 81.8680 120° Southeast 495 570 37,000  Level FlightAware
02:50PM 57.0290 81.9930 120° Southeast 494 568 37,000  Level FlightAware
02:50PM 56.9900 82.1210 119° Southeast 494 568 37,000  Level FlightAware
02:51PM 56.9530 82.2530 117° Southeast 493 567 37,000  Level FlightAware
02:52PM 56.9120 82.3990 117° Southeast 492 566 37,000  Level FlightAware
02:52PM 56.8800 82.5130 117° Southeast 492 566 37,000  Level FlightAware
02:53PM 56.8430 82.6420 118° Southeast 493 567 37,000  Level FlightAware
02:53PM 56.8010 82.7880 118° Southeast 494 568 37,000  Level FlightAware
02:54PM 56.7690 82.9000 117° Southeast 496 571 37,000  Level FlightAware
02:55PM 56.7320 83.0270 118° Southeast 496 571 37,000  Level FlightAware
02:55PM 56.6940 83.1570 118° Southeast 495 570 37,000  Level FlightAware
02:56PM 56.6570 83.2840 118° Southeast 496 571 37,000  Level FlightAware
02:56PM 56.6190 83.4140 118° Southeast 495 570 37,000  Level FlightAware
02:57PM 56.5810 83.5400 119° Southeast 496 571 37,000  Level FlightAware
02:58PM 56.5370 83.6880 118° Southeast 495 570 37,000  Level FlightAware
02:58PM 56.5040 83.7990 118° Southeast 496 571 37,000  Level FlightAware
02:59PM 56.4670 83.9240 118° Southeast 496 571 37,000  Level FlightAware
02:59PM 56.4280 84.0520 119° Southeast 496 571 37,000  Level FlightAware
03:00PM 56.3840 84.1960 119° Southeast 498 573 37,000  Level FlightAware
03:00PM 56.3500 84.3050 119° Southeast 497 572 37,000  Level FlightAware
03:01PM 56.3120 84.4300 119° Southeast 497 572 37,000  Level FlightAware
03:02PM 56.2670 84.5770 119° Southeast 497 572 37,000  Level FlightAware
03:02PM 56.2280 84.7020 119° Southeast 497 572 37,000  Level FlightAware
03:03PM 56.1940 84.8090 120° Southeast 496 571 37,000  Level FlightAware
03:03PM 56.1510 84.9470 119° Southeast 496 571 37,000  Level FlightAware
03:04PM 56.1120 85.0710 119° Southeast 495 570 37,000  Level FlightAware
03:05PM 56.0650 85.2170 120° Southeast 491 565 37,000  Level FlightAware
03:05PM 56.0250 85.3420 120° Southeast 491 565 37,000  Level FlightAware
03:06PM 55.9870 85.4620 119° Southeast 490 564 37,000  Level FlightAware
03:06PM 55.9470 85.5860 120° Southeast 489 563 37,000  Level FlightAware
03:07PM 55.9070 85.7050 121° Southeast 488 562 37,000  Level FlightAware
03:08PM 55.8650 85.8270 121° Southeast 489 563 37,000  Level FlightAware
03:08PM 55.8250 85.9440 121° Southeast 489 563 37,000  Level FlightAware
03:09PM 55.7830 86.0670 121° Southeast 490 564 37,000  Level FlightAware
03:09PM 55.7430 86.1850 121° Southeast 491 565 37,000  Level FlightAware
03:10PM 55.7010 86.3060 122° Southeast 493 567 37,000  Level FlightAware
03:10PM 55.6580 86.4290 122° Southeast 494 568 37,000  Level FlightAware
03:11PM 55.6070 86.5760 122° Southeast 496 571 37,000  Level FlightAware
03:12PM 55.5640 86.6970 122° Southeast 496 571 37,000 120 Level FlightAware
03:12PM 55.5200 86.8220 122° Southeast 496 571 37,200 660 Climbing FlightAware
03:13PM 55.4830 86.9270 122° Southeast 493 567 37,800 1,080 Climbing FlightAware
03:14PM 55.4360 87.0600 122° Southeast 490 564 38,500 1,020 Climbing FlightAware
03:14PM 55.3950 87.1730 123° Southeast 488 562 39,000 420 Climbing FlightAware
03:15PM 55.3510 87.2950 122° Southeast 494 568 39,000  Level FlightAware
03:15PM 55.3090 87.4120 122° Southeast 501 577 39,000  Level FlightAware
03:16PM 55.2670 87.5280 122° Southeast 501 577 39,000  Level FlightAware
03:16PM 55.2210 87.6550 122° Southeast 500 575 39,000  Level FlightAware
03:17PM 55.1790 87.7690 123° Southeast 499 574 39,000  Level FlightAware
03:18PM 55.1160 87.9380 123° Southeast 497 572 39,000  Level FlightAware
03:18PM 55.0840 88.0250 123° Southeast 496 571 39,000  Level FlightAware
03:19PM 55.0280 88.1740 123° Southeast 496 571 39,000  Level FlightAware
03:20PM 54.9850 88.2880 123° Southeast 497 572 39,000  Level FlightAware
03:20PM 54.9390 88.4110 123° Southeast 495 570 39,000  Level FlightAware
03:21PM 54.8890 88.5410 124° Southeast 496 571 39,000  Level FlightAware
03:21PM 54.8460 88.6540 123° Southeast 495 570 39,000  Level FlightAware
03:22PM 54.7990 88.7770 124° Southeast 494 568 39,000  Level FlightAware
03:23PM 54.7530 88.8960 124° Southeast 495 570 39,000  Level FlightAware
03:23PM 54.7090 89.0110 123° Southeast 495 570 39,000  Level FlightAware
03:24PM 54.6690 89.1120 124° Southeast 495 570 39,000  Level FlightAware
03:24PM 54.6230 89.2320 123° Southeast 496 571 39,000  Level FlightAware
03:25PM 54.5770 89.3500 124° Southeast 496 571 39,000  Level FlightAware
03:26PM 54.5350 89.4570 124° Southeast 496 571 39,000  Level FlightAware
03:26PM 54.4940 89.5590 125° Southeast 429 494 39,000  Level FlightAware
03:27PM 54.4410 89.6930 124° Southeast 497 572 39,000  Level FlightAware
03:27PM 54.4020 89.7920 124° Southeast 497 572 39,000  Level FlightAware
03:28PM 54.3500 89.9210 125° Southeast 498 573 39,000  Level FlightAware
03:29PM 54.3080 90.0250 125° Southeast 499 574 39,000  Level FlightAware
03:29PM 54.2480 90.1740 125° Southeast 502 578 39,000  Level FlightAware
03:30PM 54.2010 90.2890 125° Southeast 503 579 39,000  Level FlightAware
03:30PM 54.1480 90.4180 125° Southeast 504 580 39,000  Level FlightAware
03:31PM 54.1030 90.5300 124° Southeast 502 578 39,000  Level FlightAware
03:32PM 54.0390 90.6840 125° Southeast 504 580 39,000  Level FlightAware
03:32PM 53.9940 90.7950 125° Southeast 504 580 39,000  Level FlightAware
03:33PM 53.9400 90.9240 125° Southeast 504 580 39,000  Level FlightAware
03:34PM 53.9040 91.0100 125° Southeast 504 580 39,000  Level FlightAware
03:34PM 53.8520 91.1330 126° Southeast 504 580 39,000  Level FlightAware
03:35PM 53.7970 91.2640 125° Southeast 503 579 39,000  Level FlightAware
03:35PM 53.7580 91.3540 126° Southeast 498 573 39,000  Level FlightAware
03:36PM 53.7110 91.4480 130° Southeast 496 571 39,000  Level FlightAware
03:37PM 53.6460 91.5680 132° Southeast 497 572 39,000  Level FlightAware
03:37PM 53.6010 91.6520 132° Southeast 498 573 39,000  Level FlightAware
03:38PM 53.5510 91.7450 132° Southeast 498 573 39,000  Level FlightAware
03:38PM 53.5010 91.8380 132° Southeast 498 573 39,000  Level FlightAware
03:39PM 53.7110 91.4480 312° West 39,000  Level FlightAware
03:39PM 53.3890 92.0380 132° Southeast 490 564 39,000  Level FlightAware
03:40PM 53.3390 92.1220 135° Southeast 490 564 39,000  Level FlightAware
03:41PM 53.2900 92.2040 135° Southeast 490 564 39,000  Level FlightAware
03:41PM 53.2410 92.2860 135° Southeast 490 564 39,000  Level FlightAware
03:42PM 53.1920 92.3680 135° Southeast 490 564 39,000  Level FlightAware
03:42PM 53.1430 92.4490 135° Southeast 490 564 39,000  Level FlightAware
03:43PM 53.3760 92.0600 315° West 39,000  Level FlightAware
03:43PM 53.0300 92.5960 137° Southeast 489 563 39,000  Level FlightAware
03:44PM 52.9500 92.7170 138° Southeast 489 563 39,000  Level FlightAware
03:45PM 52.8720 92.8370 137° Southeast 490 564 39,000  Level FlightAware
03:45PM 52.8210 92.9150 137° Southeast 490 564 39,000  Level FlightAware
03:46PM 52.7710 92.9930 137° Southeast 490 564 39,000  Level FlightAware
03:46PM 52.7200 93.0720 137° Southeast 490 564 39,000  Level FlightAware
03:47PM 52.6690 93.1500 137° Southeast 490 564 39,000  Level FlightAware
03:48PM 52.6170 93.2300 137° Southeast 490 564 39,000  Level FlightAware
03:48PM 52.5660 93.3080 137° Southeast 490 564 39,000  Level FlightAware
03:49PM 52.5150 93.3850 137° Southeast 490 564 39,000  Level FlightAware
03:49PM 52.4650 93.4630 136° Southeast 490 564 39,000  Level FlightAware
03:50PM 52.4140 93.5410 137° Southeast 490 564 39,000  Level FlightAware
03:51PM 52.3630 93.6180 137° Southeast 490 564 39,000  Level FlightAware
03:51PM 52.3120 93.6960 137° Southeast 490 564 39,000  Level FlightAware
03:52PM 52.2620 93.7730 137° Southeast 490 564 39,000  Level FlightAware
03:52PM 52.2110 93.8500 137° Southeast 490 564 39,000  Level FlightAware
03:53PM 52.1590 93.9290 137° Southeast 490 564 39,000  Level FlightAware
03:54PM 52.1070 94.0090 137° Southeast 490 564 39,000  Level FlightAware
03:56PM 51.9773 94.3082 125° Southeast  Level Estimated
03:57PM 51.9049 94.4737 125° Southeast  Level Estimated
03:58PM 51.8323 94.6386 125° Southeast  Level Estimated
03:59PM 51.7595 94.8030 126° Southeast  Level Estimated
04:00PM 51.6864 94.9669 126° Southeast  Level Estimated
04:01PM 51.6131 95.1303 126° Southeast  Level Estimated
04:02PM 51.5396 95.2931 126° Southeast  Level Estimated
04:03PM 51.4658 95.4554 126° Southeast  Level Estimated
04:04PM 51.3919 95.6172 126° Southeast  Level Estimated
04:05PM 51.3177 95.7784 126° Southeast  Level Estimated
04:06PM 51.2433 95.9392 126° Southeast  Level Estimated
04:07PM 51.1686 96.0994 127° Southeast  Level Estimated
04:08PM 51.0938 96.2591 127° Southeast  Level Estimated
04:09PM 51.0187 96.4182 127° Southeast  Level Estimated
04:10PM 50.9434 96.5769 127° Southeast  Level Estimated
04:11PM 50.8679 96.7350 127° Southeast  Level Estimated
04:12PM 50.7922 96.8927 127° Southeast  Level Estimated
04:13PM 50.7163 97.0498 127° Southeast  Level Estimated
04:14PM 50.6402 97.2064 127° Southeast  Level Estimated
04:15PM 50.5638 97.3625 128° Southeast  Level Estimated
04:16PM 50.4873 97.5181 128° Southeast  Level Estimated
04:17PM 50.4105 97.6732 128° Southeast  Level Estimated
04:18PM 50.3336 97.8278 128° Southeast  Level Estimated
04:19PM 50.2564 97.9819 128° Southeast  Level Estimated
04:20PM 50.1790 98.1355 128° Southeast  Level Estimated
04:21PM 50.1015 98.2886 128° Southeast  Level Estimated
04:22PM 50.0237 98.4412 128° Southeast  Level Estimated
04:23PM 49.9457 98.5933 129° Southeast  Level Estimated
04:24PM 49.8675 98.7449 129° Southeast  Level Estimated
04:25PM 49.7892 98.8961 129° Southeast  Level Estimated
04:26PM 49.7106 99.0467 129° Southeast  Level Estimated
04:27PM 49.6319 99.1969 129° Southeast  Level Estimated
04:28PM 49.5529 99.3465 129° Southeast  Level Estimated
04:29PM 49.4738 99.4957 129° Southeast  Level Estimated
04:30PM 49.3944 99.6444 129° Southeast  Level Estimated
04:31PM 49.3149 99.7926 129° Southeast  Level Estimated
04:32PM 49.2352 99.9404 130° Southeast  Level Estimated
04:33PM 49.1553 100.0876 130° Southeast  Level Estimated
04:34PM 49.0752 100.2344 130° Southeast  Level Estimated
04:35PM 48.9949 100.3807 130° Southeast  Level Estimated
04:36PM 48.9145 100.5266 130° Southeast  Level Estimated
04:37PM 48.8339 100.6720 130° Southeast  Level Estimated
04:38PM 48.7530 100.8169 130° Southeast  Level Estimated
04:39PM 48.6720 100.9613 130° Southeast  Level Estimated
04:40PM 48.5909 101.1053 130° Southeast  Level Estimated
04:41PM 48.5095 101.2488 131° Southeast  Level Estimated
04:42PM 48.4280 101.3918 131° Southeast  Level Estimated
04:43PM 48.3462 101.5344 131° Southeast  Level Estimated
04:44PM 48.2643 101.6766 131° Southeast  Level Estimated
04:45PM 48.1823 101.8183 131° Southeast  Level Estimated
04:46PM 48.1000 101.9595 131° Southeast  Level Estimated
04:47PM 48.0176 102.1003 131° Southeast  Level Estimated
04:48PM 47.9350 102.2406 131° Southeast  Level Estimated
04:49PM 47.8523 102.3805 131° Southeast  Level Estimated
04:50PM 47.7694 102.5199 131° Southeast  Level Estimated
04:51PM 47.6863 102.6589 132° Southeast  Level Estimated
04:52PM 47.6030 102.7974 132° Southeast  Level Estimated
04:53PM 47.5196 102.9356 132° Southeast  Level Estimated
04:54PM 47.4360 103.0732 132° Southeast  Level Estimated
04:55PM 47.3522 103.2105 132° Southeast  Level Estimated
04:56PM 47.2683 103.3473 132° Southeast  Level Estimated
04:57PM 47.1842 103.4836 132° Southeast  Level Estimated
04:58PM 47.1000 103.6195 132° Southeast  Level Estimated
04:59PM 47.0156 103.7550 132° Southeast  Level Estimated
05:00PM 46.9310 103.8901 132° Southeast  Level Estimated
05:01PM 46.8463 104.0248 133° Southeast  Level Estimated
05:02PM 46.7614 104.1590 133° Southeast  Level Estimated
05:03PM 46.6764 104.2928 133° Southeast  Level Estimated
05:04PM 46.5912 104.4262 133° Southeast  Level Estimated
05:05PM 46.5059 104.5591 133° Southeast  Level Estimated
05:06PM 46.4204 104.6917 133° Southeast  Level Estimated
05:07PM 46.3347 104.8238 133° Southeast  Level Estimated
05:08PM 46.2489 104.9555 133° Southeast  Level Estimated
05:09PM 46.1630 105.0868 133° Southeast  Level Estimated
05:10PM 46.0769 105.2177 133° Southeast  Level Estimated
05:11PM 45.9906 105.3482 134° Southeast  Level Estimated
05:12PM 45.9042 105.4782 134° Southeast  Level Estimated
05:13PM 45.8177 105.6079 134° Southeast  Level Estimated
05:14PM 45.7310 105.7372 134° Southeast  Level Estimated
05:15PM 45.6441 105.8661 134° Southeast  Level Estimated
05:16PM 45.5572 105.9945 134° Southeast  Level Estimated
05:17PM 45.4700 106.1226 134° Southeast  Level Estimated
05:18PM 45.3828 106.2503 134° Southeast  Level Estimated
05:19PM 45.2953 106.3776 134° Southeast  Level Estimated
05:20PM 45.2078 106.5044 134° Southeast  Level Estimated
05:21PM 45.1201 106.6310 134° Southeast  Level Estimated
05:22PM 45.0323 106.7571 135° Southeast  Level Estimated
05:23PM 44.9443 106.8828 135° Southeast  Level Estimated
05:24PM 44.8562 107.0081 135° Southeast  Level Estimated
05:25PM 44.7680 107.1331 135° Southeast  Level Estimated
05:26PM 44.6796 107.2577 135° Southeast  Level Estimated
05:27PM 44.5911 107.3818 135° Southeast  Level Estimated
05:28PM 44.5024 107.5057 135° Southeast  Level Estimated
05:29PM 44.4136 107.6291 135° Southeast  Level Estimated
05:30PM 44.3247 107.7522 135° Southeast  Level Estimated
05:31PM 44.2357 107.8749 135° Southeast  Level Estimated
05:32PM 44.1465 107.9972 135° Southeast  Level Estimated
05:33PM 44.0572 108.1191 136° Southeast  Level Estimated
05:34PM 43.9677 108.2407 136° Southeast  Level Estimated
05:35PM 43.8782 108.3619 136° Southeast  Level Estimated
05:36PM 43.7885 108.4828 136° Southeast  Level Estimated
05:37PM 43.6987 108.6033 136° Southeast  Level Estimated
05:38PM 43.6087 108.7234 136° Southeast  Level Estimated
05:39PM 43.5186 108.8432 136° Southeast  Level Estimated
05:40PM 43.4284 108.9626 136° Southeast  Level Estimated
05:41PM 43.3381 109.0816 136° Southeast  Level Estimated
05:42PM 43.2477 109.2004 136° Southeast  Level Estimated
05:43PM 43.1571 109.3187 136° Southeast  Level Estimated
05:44PM 43.0664 109.4367 136° Southeast  Level Estimated
05:45PM 42.9756 109.5544 137° Southeast  Level Estimated
05:46PM 42.8847 109.6717 137° Southeast  Level Estimated
05:47PM 42.7936 109.7886 137° Southeast  Level Estimated
05:48PM 42.7024 109.9053 137° Southeast  Level Estimated
05:49PM 42.6112 110.0215 137° Southeast  Level Estimated
05:50PM 42.5198 110.1375 137° Southeast  Level Estimated
05:51PM 42.4282 110.2531 137° Southeast  Level Estimated
05:52PM 42.3366 110.3683 137° Southeast  Level Estimated
05:53PM 42.2449 110.4832 137° Southeast  Level Estimated
05:54PM 42.1530 110.5978 137° Southeast  Level Estimated
05:55PM 42.0610 110.7121 137° Southeast  Level Estimated
05:56PM 41.9689 110.8260 137° Southeast  Level Estimated
05:57PM 41.8767 110.9396 137° Southeast  Level Estimated
05:58PM 41.7844 111.0529 138° Southeast  Level Estimated
05:59PM 41.6920 111.1658 138° Southeast  Level Estimated
06:00PM 41.5995 111.2785 138° Southeast  Level Estimated
06:01PM 41.5068 111.3907 138° Southeast  Level Estimated
06:02PM 41.4141 111.5027 138° Southeast  Level Estimated
06:03PM 41.3212 111.6144 138° Southeast  Level Estimated
06:04PM 41.2282 111.7257 138° Southeast  Level Estimated
06:05PM 41.1352 111.8367 138° Southeast  Level Estimated
06:06PM 41.0420 111.9475 138° Southeast  Level Estimated
06:07PM 40.9487 112.0579 138° Southeast  Level Estimated
06:08PM 40.8553 112.1679 138° Southeast  Level Estimated
06:09PM 40.7618 112.2777 138° Southeast  Level Estimated
06:10PM 40.6682 112.3872 138° Southeast  Level Estimated
06:11PM 40.5745 112.4963 138° Southeast  Level Estimated
06:11PM 40.0390 115.7800 139° Southeast 497 572 39,100  Level FlightAware
06:11PM 39.9770 115.8170 155° Southeast 494 568 39,100  Level FlightAware
06:12PM 40.4807 112.6052 139° Southeast  Level Estimated
06:12PM 39.9450 115.8330 159° South 482 555 39,100  Level FlightAware
06:12PM 39.8710 115.8630 163° South 477 549 39,100  Level FlightAware
06:13PM 39.7990 115.8930 162° South 475 547 39,100  Level FlightAware
06:13PM 39.7240 115.9230 163° South 475 547 39,100  Level FlightAware
06:14PM 39.6480 115.9540 163° South 475 547 39,100  Level FlightAware
06:15PM 39.5270 116.0040 162° South 473 544 39,100  Level FlightAware
06:16PM 39.4620 116.0300 163° South 472 543 39,100  Level FlightAware
06:16PM 39.3850 116.0610 163° South 473 544 39,100  Level FlightAware
06:17PM 39.3110 116.0910 163° South 475 547 39,100  Level FlightAware
06:17PM 39.2420 116.1190 163° South 476 548 39,100  Level FlightAware
06:18PM 39.1590 116.1520 163° South 474 545 39,100  Level FlightAware
06:18PM 39.1110 116.1710 163° South 474 545 39,100  Level FlightAware
06:19PM 39.0150 116.2150 160° South 484 557 39,100  Level FlightAware
06:20PM 38.9570 116.2480 156° South 486 559 39,100  Level FlightAware
06:20PM 38.8780 116.2930 156° South 483 556 39,100  Level FlightAware
06:21PM 38.8130 116.3300 156° South 481 554 39,100  Level FlightAware
06:21PM 38.7370 116.3730 156° South 483 556 39,100  Level FlightAware
06:22PM 38.6630 116.4150 156° South 482 555 39,100  Level FlightAware
06:23PM 38.5920 116.4550 156° South 483 556 39,100  Level FlightAware
06:23PM 38.5230 116.4950 156° South 483 556 39,100  Level FlightAware
06:24PM 38.4600 116.5300 156° South 483 556 39,100  Level FlightAware
06:24PM 38.3960 116.5670 156° South 483 556 39,100  Level FlightAware
06:25PM 38.3320 116.6030 156° South 483 556 39,100  Level FlightAware
06:26PM 38.2660 116.6410 156° South 483 556 39,100  Level FlightAware
06:26PM 38.2040 116.6760 156° South 483 556 39,100  Level FlightAware
06:27PM 38.1410 116.7120 156° South 483 556 39,100  Level FlightAware
06:28PM 38.0790 116.7470 156° South 483 556 39,100  Level FlightAware
06:28PM 38.0160 116.7820 156° South 483 556 39,100  Level FlightAware
06:29PM 37.9540 116.8170 156° South 483 556 39,100  Level FlightAware
06:29PM 37.8910 116.8530 156° South 483 556 39,100  Level FlightAware
06:30PM 37.8290 116.8880 156° South 483 556 39,100  Level FlightAware
06:30PM 37.7700 116.9210 156° South 483 556 39,100  Level FlightAware
06:31PM 37.7060 116.9570 156° South 483 556 39,100  Level FlightAware
06:32PM 37.6430 116.9920 156° South 483 556 39,100  Level FlightAware
06:32PM 37.5810 117.0280 155° Southeast 483 556 39,100  Level FlightAware
06:35PM 37.3495 117.2155 147° Southeast  Level Estimated
06:36PM 37.2442 117.3003 147° Southeast  Level Estimated
06:37PM 37.1389 117.3849 147° Southeast  Level Estimated
06:38PM 37.0334 117.4693 147° Southeast  Level Estimated
06:39PM 36.9279 117.5534 147° Southeast  Level Estimated
06:40PM 36.8224 117.6373 148° Southeast  Level Estimated
06:41PM 36.7168 117.7210 148° Southeast  Level Estimated
06:42PM 36.6111 117.8044 148° Southeast  Level Estimated
06:43PM 36.5054 117.8876 148° Southeast  Level Estimated
06:44PM 36.3996 117.9706 148° Southeast  Level Estimated
06:45PM 36.2938 118.0534 148° Southeast  Level Estimated
06:46PM 36.1879 118.1359 148° Southeast  Level Estimated
06:47PM 36.0819 118.2182 148° Southeast  Level Estimated
06:48PM 35.9759 118.3003 148° Southeast  Level Estimated
06:49PM 35.8698 118.3822 148° Southeast  Level Estimated
06:50PM 35.7637 118.4639 148° Southeast  Level Estimated
06:51PM 35.6576 118.5453 148° Southeast  Level Estimated
06:52PM 35.5513 118.6265 148° Southeast  Level Estimated
06:53PM 35.4450 118.7075 148° Southeast  Level Estimated
06:54PM 35.3387 118.7883 148° Southeast  Level Estimated
06:55PM 35.2323 118.8689 148° Southeast  Level Estimated
06:56PM 35.1259 118.9492 148° Southeast  Level Estimated
06:57PM 35.0194 119.0294 148° Southeast  Level Estimated
06:58PM 34.9128 119.1094 148° Southeast  Level Estimated
06:59PM 34.8062 119.1891 148° Southeast  Level Estimated
07:00PM 34.6996 119.2686 148° Southeast  Level Estimated
07:01PM 34.5929 119.3480 149° Southeast  Level Estimated
07:02PM 34.4861 119.4271 149° Southeast  Level Estimated
07:03PM 34.3793 119.5060 149° Southeast  Level Estimated
07:04PM 34.2724 119.5847 149° Southeast  Level Estimated
07:05PM 34.1655 119.6633 149° Southeast  Level Estimated
07:06PM 34.0586 119.7416 149° Southeast  Level Estimated
07:07PM 33.9515 119.8197 149° Southeast  Level Estimated
07:08PM 33.8445 119.8976 149° Southeast  Level Estimated
07:09PM 33.7374 119.9754 149° Southeast  Level Estimated
07:09PM 32.9400 118.8170 149° Southeast 485 558 39,100  Level FlightAware
07:09PM 32.8650 118.8790 145° Southeast 486 559 39,100  Level FlightAware
07:10PM 32.7950 118.9370 145° Southeast 485 558 39,100  Level FlightAware
07:11PM 32.7230 118.9970 145° Southeast 486 559 39,100 -120 Level FlightAware
07:11PM 32.6480 119.0590 145° Southeast 486 559 39,000 -480 Descending FlightAware
07:12PM 32.5820 119.1140 145° Southeast 486 559 38,500 -2,280 Descending FlightAware
07:13PM 32.5050 119.1770 145° Southeast 502 578 36,200 -2,400 Descending FlightAware
07:13PM 32.4290 119.2400 145° Southeast 507 583 35,500 -1,080 Descending FlightAware
07:14PM 32.3690 119.2890 145° Southeast 506 582 35,000 -720 Descending FlightAware
07:15PM 32.2760 119.3660 145° Southeast 507 583 34,600 -300 Descending FlightAware
07:15PM 32.2170 119.4150 145° Southeast 507 583 34,600  Level FlightAware
07:16PM 32.1580 119.4630 145° Southeast 507 583 34,600 -2,820 Level FlightAware
07:17PM 32.0470 119.5530 145° Southeast 489 563 30,400 -3,900 Descending FlightAware
07:17PM 31.9710 119.6140 146° Southeast 489 563 28,700 -2,340 Descending FlightAware
07:18PM 31.9020 119.6850 139° Southeast 456 525 27,400 -1,680 Descending FlightAware
07:19PM 31.8660 119.7470 124° Southeast 450 518 26,600 -1,800 Descending FlightAware
07:19PM 31.8300 119.8220 119° Southeast 445 512 25,300 -1,920 Descending FlightAware
07:20PM 31.7870 119.9130 119° Southeast 437 503 24,200 -1,800 Descending FlightAware
07:20PM 31.7570 119.9770 119° Southeast 428 493 23,200 -1,860 Descending FlightAware
07:21PM 31.7230 120.0490 119° Southeast 421 484 22,200 -1,800 Descending FlightAware
07:22PM 31.6900 120.1170 120° Southeast 419 482 21,100 -1,200 Descending FlightAware
07:22PM 31.6530 120.1970 119° Southeast 410 472 20,700 -960 Descending FlightAware
07:23PM 31.6250 120.2550 120° Southeast 413 475 20,000 -900 Descending FlightAware
07:23PM 31.5890 120.3320 119° Southeast 410 472 19,700 -900 Descending FlightAware
07:24PM 31.5630 120.4170 110° East 410 472 18,800 -1,680 Descending FlightAware
07:25PM 31.5410 120.4910 109° East 409 471 17,600 -1,740 Descending FlightAware
07:25PM 31.5200 120.5600 110° East 396 456 16,800 -1,620 Descending FlightAware
07:26PM 31.4960 120.6400 109° East 391 450 15,600 -1,620 Descending FlightAware
07:26PM 31.4740 120.7110 110° East 381 438 14,800 -1,440 Descending FlightAware
07:27PM 31.4520 120.7820 110° East 372 428 13,900 -1,500 Descending FlightAware
07:28PM 31.4350 120.8400 109° East 365 420 13,100 -1,560 Descending FlightAware
07:28PM 31.4110 120.9150 111° Southeast 360 414 12,100 -1,560 Descending FlightAware
07:29PM 31.3950 120.9690 109° East 356 410 11,300 -1,500 Descending FlightAware
07:29PM 31.3750 121.0330 110° East 350 403 10,500 -900 Descending FlightAware
07:30PM 31.3540 121.1010 110° East 328 377 10,200 -540 Descending FlightAware
07:31PM 31.3390 121.1510 109° East 309 356 9,900 -480 Descending FlightAware
07:31PM 31.3300 121.1810 109° East 308 354 9,800 -180 Descending FlightAware
07:31PM 31.3230 121.2040 110° East 307 353 9,800  Level FlightAware
07:31PM 31.3130 121.2370 110° East 311 358 9,800 -540 Level FlightAware
07:32PM 31.3010 121.2780 109° East 309 356 9,400 -1,200 Descending FlightAware
07:32PM 31.2920 121.3090 109° East 306 352 8,900 -1,560 Descending FlightAware
07:32PM 31.2870 121.3290 106° East 302 348 8,500 -1,500 Descending FlightAware
07:33PM 31.2870 121.3400 90° East 304 350 8,400 -1,560 Descending FlightAware
07:33PM 31.2920 121.3770 81° East 300 345 7,800 -1,680 Descending FlightAware
07:33PM 31.2990 121.3980 69° East 301 346 7,400 -1,740 Descending FlightAware
07:33PM 31.3110 121.4290 66° East 299 344 6,800 -1,560 Descending FlightAware
07:34PM 31.3200 121.4500 63° Northeast 298 343 6,500 -1,080 Descending FlightAware
07:34PM 31.3320 121.4790 64° Northeast 282 325 6,200 -780 Descending FlightAware
07:34PM 31.3430 121.5030 62° Northeast 262 302 6,000 -480 Descending FlightAware
07:35PM 31.3530 121.5270 64° Northeast 237 273 5,900 -180 Descending FlightAware
07:35PM 31.3600 121.5450 66° East 214 246 5,900  Level FlightAware
07:35PM 31.3690 121.5660 63° Northeast 199 229 5,900 -180 Level FlightAware
07:36PM 31.3780 121.5870 63° Northeast 203 234 5,800 -780 Descending FlightAware
07:36PM 31.3860 121.6060 64° Northeast 205 236 5,400 -1,200 Descending FlightAware
07:36PM 31.3970 121.6310 63° Northeast 204 235 4,900 -1,200 Descending FlightAware
07:37PM 31.4060 121.6520 63° Northeast 209 241 4,500 -1,200 Descending FlightAware
07:37PM 31.4070 121.6570 77° East 209 241 4,400 -1,800 Descending FlightAware
07:37PM 31.4070 121.6620 90° East 207 238 4,200 -960 Descending FlightAware
07:37PM 31.3980 121.6820 118° Southeast 192 221 4,000 -600 Descending FlightAware
07:37PM 31.3920 121.6880 140° Southeast 188 216 3,900 -960 Descending FlightAware
07:38PM 31.3810 121.6970 145° Southeast 187 215 3,600 -1,260 Descending FlightAware
07:38PM 31.3720 121.7010 159° South 195 224 3,400 -840 Descending FlightAware
07:38PM 31.3550 121.7080 161° South 190 219 3,200 -600 Descending FlightAware
07:39PM 31.3380 121.7140 163° South 173 199 3,000 -300 Descending FlightAware
07:39PM 31.3240 121.7190 163° South 172 198 3,000  Level FlightAware
07:39PM 31.3080 121.7250 162° South 173 199 3,000  Level FlightAware
07:40PM 31.2900 121.7320 162° South 173 199 3,000 -960 Level FlightAware
07:40PM 31.2550 121.7450 162° South 172 198 2,000 -1,440 Descending FlightAware
07:41PM 31.2410 121.7510 160° South 172 198 1,700 -900 Descending FlightAware
07:41PM 31.2270 121.7560 163° South 156 180 1,400 -420 Descending FlightAware
07:41PM 31.2110 121.7620 162° South 156 180 1,400 -720 Level FlightAware
07:42PM 31.1930 121.7690 162° South 156 180 800 -1,200 Descending FlightAware
07:42PM 31.1810 121.7730 164° South 141 162 500 -840 Descending FlightAware
07:43PM 31.1640 121.7800 161° South 141 162 200 -360 Descending FlightAware
07:43PM 31.1500 121.7860 160° South 141 162 200  Level FlightAware
07:46PM 31.1428 121.7924 143° Southeast  Level Estimated
07:47PM 31.1428 121.7924 221° Southwest  Level Estimated
07:48PM 31.1428 121.7924 221° Southwest  Level Estimated
07:49PM 31.1428 121.7924 221° Southwest  Level Estimated
07:50PM 31.1428 121.7924 221° Southwest  Level Estimated
07:51PM 31.1428 121.7924 221° Southwest  Level Estimated